sensor_id;sensor_type;location;lat;lon;timestamp;pressure;altitude;pressure_sealevel;temperature;humidity
73692;BME280;61996;49.910;35.562;2023-07-20T00:02:01;98794.31;;;21.77;55.99
73692;BME280;61996;49.910;35.562;2023-07-20T00:05:04;98798.19;;;21.75;55.82
73692;BME280;61996;49.910;35.562;2023-07-20T00:08:07;98803.06;;;21.71;55.90
73692;BME280;61996;49.910;35.562;2023-07-20T00:11:11;98807.59;;;21.62;55.95
73692;BME280;61996;49.910;35.562;2023-07-20T00:14:15;98801.03;;;21.73;55.89
73692;BME280;61996;49.910;35.562;2023-07-20T00:17:18;98801.56;;;21.69;55.63
73692;BME280;61996;49.910;35.562;2023-07-20T00:20:21;98807.59;;;21.71;55.54
73692;BME280;61996;49.910;35.562;2023-07-20T00:23:24;98812.88;;;21.56;55.66
73692;BME280;61996;49.910;35.562;2023-07-20T00:26:29;98806.31;;;21.58;56.00
73692;BME280;61996;49.910;35.562;2023-07-20T00:29:32;98808.72;;;21.45;56.22
73692;BME280;61996;49.910;35.562;2023-07-20T00:32:34;98814.31;;;21.36;56.10
73692;BME280;61996;49.910;35.562;2023-07-20T00:35:37;98817.84;;;21.28;56.19
73692;BME280;61996;49.910;35.562;2023-07-20T00:38:40;98820.00;;;21.24;56.31
73692;BME280;61996;49.910;35.562;2023-07-20T00:41:44;98825.97;;;21.34;56.01
73692;BME280;61996;49.910;35.562;2023-07-20T00:44:47;98821.81;;;21.32;55.77
73692;BME280;61996;49.910;35.562;2023-07-20T00:47:50;98811.13;;;21.32;55.61
73692;BME280;61996;49.910;35.562;2023-07-20T00:50:53;98823.69;;;21.23;55.99
73692;BME280;61996;49.910;35.562;2023-07-20T00:53:57;98828.56;;;21.28;55.92
73692;BME280;61996;49.910;35.562;2023-07-20T00:57:02;98826.69;;;21.20;55.85
73692;BME280;61996;49.910;35.562;2023-07-20T01:00:05;98816.00;;;21.28;55.51
73692;BME280;61996;49.910;35.562;2023-07-20T01:03:08;98818.69;;;21.28;55.45
73692;BME280;61996;49.910;35.562;2023-07-20T01:06:14;98823.31;;;21.34;55.22
73692;BME280;61996;49.910;35.562;2023-07-20T01:09:25;98830.34;;;21.36;55.38
73692;BME280;61996;49.910;35.562;2023-07-20T01:12:32;98818.28;;;21.40;55.19
73692;BME280;61996;49.910;35.562;2023-07-20T01:15:35;98819.66;;;21.36;55.14
73692;BME280;61996;49.910;35.562;2023-07-20T01:18:38;98813.94;;;21.39;55.06
73692;BME280;61996;49.910;35.562;2023-07-20T01:21:43;98809.91;;;21.43;55.02
73692;BME280;61996;49.910;35.562;2023-07-20T01:28:22;98815.28;;;21.26;54.99
73692;BME280;61996;49.910;35.562;2023-07-20T01:31:32;98816.31;;;21.25;55.48
73692;BME280;61996;49.910;35.562;2023-07-20T01:34:36;98819.34;;;21.30;54.90
73692;BME280;61996;49.910;35.562;2023-07-20T01:37:42;98829.22;;;21.22;55.11
73692;BME280;61996;49.910;35.562;2023-07-20T01:40:45;98825.56;;;21.15;55.37
73692;BME280;61996;49.910;35.562;2023-07-20T01:43:48;98832.22;;;21.19;55.00
73692;BME280;61996;49.910;35.562;2023-07-20T01:46:53;98832.09;;;21.04;55.42
73692;BME280;61996;49.910;35.562;2023-07-20T01:49:56;98838.47;;;21.03;55.42
73692;BME280;61996;49.910;35.562;2023-07-20T01:52:58;98839.16;;;21.44;55.08
73692;BME280;61996;49.910;35.562;2023-07-20T01:56:01;98842.00;;;21.74;54.53
73692;BME280;61996;49.910;35.562;2023-07-20T01:59:04;98840.78;;;21.84;54.05
73692;BME280;61996;49.910;35.562;2023-07-20T02:02:09;98835.06;;;21.87;54.34
73692;BME280;61996;49.910;35.562;2023-07-20T02:05:11;98838.56;;;21.88;54.46
73692;BME280;61996;49.910;35.562;2023-07-20T02:08:15;98841.63;;;21.85;54.31
73692;BME280;61996;49.910;35.562;2023-07-20T02:11:17;98849.94;;;21.90;54.06
73692;BME280;61996;49.910;35.562;2023-07-20T02:14:20;98853.47;;;21.91;54.55
73692;BME280;61996;49.910;35.562;2023-07-20T02:17:25;98860.09;;;21.95;54.20
73692;BME280;61996;49.910;35.562;2023-07-20T02:20:28;98862.78;;;21.95;54.44
73692;BME280;61996;49.910;35.562;2023-07-20T02:23:31;98849.72;;;22.00;54.14
73692;BME280;61996;49.910;35.562;2023-07-20T02:26:34;98853.03;;;22.02;54.40
73692;BME280;61996;49.910;35.562;2023-07-20T02:29:37;98864.56;;;22.02;54.37
73692;BME280;61996;49.910;35.562;2023-07-20T02:32:41;98860.06;;;22.03;54.36
73692;BME280;61996;49.910;35.562;2023-07-20T02:35:47;98858.38;;;22.02;54.46
73692;BME280;61996;49.910;35.562;2023-07-20T02:38:50;98869.59;;;22.05;54.23
73692;BME280;61996;49.910;35.562;2023-07-20T02:41:53;98863.22;;;22.06;54.58
73692;BME280;61996;49.910;35.562;2023-07-20T02:44:55;98863.41;;;22.05;54.28
73692;BME280;61996;49.910;35.562;2023-07-20T02:47:59;98859.03;;;22.04;54.47
73692;BME280;61996;49.910;35.562;2023-07-20T02:51:04;98861.38;;;22.07;54.48
73692;BME280;61996;49.910;35.562;2023-07-20T02:54:09;98861.03;;;22.10;54.08
73692;BME280;61996;49.910;35.562;2023-07-20T02:57:12;98857.34;;;22.11;54.41
73692;BME280;61996;49.910;35.562;2023-07-20T03:00:18;98859.69;;;22.14;54.39
73692;BME280;61996;49.910;35.562;2023-07-20T03:03:22;98856.47;;;22.19;54.01
73692;BME280;61996;49.910;35.562;2023-07-20T03:06:25;98860.97;;;22.18;54.13
73692;BME280;61996;49.910;35.562;2023-07-20T03:09:29;98854.97;;;22.16;54.25
73692;BME280;61996;49.910;35.562;2023-07-20T03:12:31;98851.56;;;22.22;54.21
73692;BME280;61996;49.910;35.562;2023-07-20T03:15:35;98852.22;;;22.24;54.28
73692;BME280;61996;49.910;35.562;2023-07-20T03:18:40;98857.59;;;22.24;54.39
73692;BME280;61996;49.910;35.562;2023-07-20T03:21:43;98857.59;;;22.24;54.58
73692;BME280;61996;49.910;35.562;2023-07-20T03:24:46;98874.13;;;22.28;54.38
73692;BME280;61996;49.910;35.562;2023-07-20T03:27:49;98879.13;;;22.31;54.44
73692;BME280;61996;49.910;35.562;2023-07-20T03:30:54;98880.97;;;22.30;54.40
73692;BME280;61996;49.910;35.562;2023-07-20T03:33:59;98872.94;;;22.30;53.92
73692;BME280;61996;49.910;35.562;2023-07-20T03:37:02;98870.75;;;22.34;54.05
73692;BME280;61996;49.910;35.562;2023-07-20T03:40:06;98874.25;;;22.34;54.45
73692;BME280;61996;49.910;35.562;2023-07-20T03:43:09;98880.44;;;22.35;54.49
73692;BME280;61996;49.910;35.562;2023-07-20T03:46:12;98875.91;;;22.35;54.28
73692;BME280;61996;49.910;35.562;2023-07-20T03:49:16;98890.78;;;22.38;54.48
73692;BME280;61996;49.910;35.562;2023-07-20T03:52:19;98891.28;;;22.41;53.92
73692;BME280;61996;49.910;35.562;2023-07-20T03:55:22;98885.91;;;22.41;54.05
73692;BME280;61996;49.910;35.562;2023-07-20T03:58:25;98897.28;;;22.43;53.89
73692;BME280;61996;49.910;35.562;2023-07-20T04:01:28;98895.44;;;22.44;54.34
73692;BME280;61996;49.910;35.562;2023-07-20T04:04:32;98897.94;;;22.46;54.51
73692;BME280;61996;49.910;35.562;2023-07-20T04:07:35;98895.25;;;22.46;54.36
73692;BME280;61996;49.910;35.562;2023-07-20T04:10:38;98902.09;;;22.48;54.46
73692;BME280;61996;49.910;35.562;2023-07-20T04:13:41;98902.94;;;22.49;54.48
73692;BME280;61996;49.910;35.562;2023-07-20T04:16:45;98903.78;;;22.49;54.30
73692;BME280;61996;49.910;35.562;2023-07-20T04:19:50;98905.09;;;22.53;54.27
73692;BME280;61996;49.910;35.562;2023-07-20T04:22:53;98902.22;;;22.55;54.10
73692;BME280;61996;49.910;35.562;2023-07-20T04:25:56;98903.69;;;22.57;54.36
73692;BME280;61996;49.910;35.562;2023-07-20T04:28:59;98905.53;;;22.57;54.13
73692;BME280;61996;49.910;35.562;2023-07-20T04:32:02;98903.50;;;22.59;53.76
73692;BME280;61996;49.910;35.562;2023-07-20T04:35:07;98909.53;;;22.61;53.75
73692;BME280;61996;49.910;35.562;2023-07-20T04:38:10;98914.72;;;22.62;53.78
73692;BME280;61996;49.910;35.562;2023-07-20T04:41:13;98906.88;;;22.61;53.72
73692;BME280;61996;49.910;35.562;2023-07-20T04:44:16;98908.53;;;22.62;53.81
73692;BME280;61996;49.910;35.562;2023-07-20T04:47:19;98915.75;;;22.61;53.60
73692;BME280;61996;49.910;35.562;2023-07-20T04:50:23;98918.69;;;22.66;53.36
73692;BME280;61996;49.910;35.562;2023-07-20T04:53:27;98919.69;;;22.65;53.38
73692;BME280;61996;49.910;35.562;2023-07-20T04:56:29;98918.53;;;22.68;53.06
73692;BME280;61996;49.910;35.562;2023-07-20T04:59:32;98926.38;;;22.69;53.24
73692;BME280;61996;49.910;35.562;2023-07-20T05:02:35;98927.22;;;22.70;53.26
73692;BME280;61996;49.910;35.562;2023-07-20T05:05:40;98929.72;;;22.71;53.44
73692;BME280;61996;49.910;35.562;2023-07-20T05:08:43;98931.38;;;22.73;52.72
73692;BME280;61996;49.910;35.562;2023-07-20T05:11:45;98924.16;;;22.73;53.02
73692;BME280;61996;49.910;35.562;2023-07-20T05:14:49;98924.84;;;22.75;52.76
73692;BME280;61996;49.910;35.562;2023-07-20T05:20:56;98915.59;;;22.78;52.76
73692;BME280;61996;49.910;35.562;2023-07-20T05:23:59;98916.22;;;22.80;52.72
73692;BME280;61996;49.910;35.562;2023-07-20T05:27:01;98913.38;;;22.81;52.01
73692;BME280;61996;49.910;35.562;2023-07-20T05:30:05;98906.81;;;22.84;52.60
73692;BME280;61996;49.910;35.562;2023-07-20T05:33:08;98905.63;;;22.86;53.03
73692;BME280;61996;49.910;35.562;2023-07-20T05:36:13;98906.31;;;22.88;52.42
73692;BME280;61996;49.910;35.562;2023-07-20T05:39:16;98908.63;;;22.91;52.46
73692;BME280;61996;49.910;35.562;2023-07-20T05:42:19;98905.28;;;22.89;51.95
73692;BME280;61996;49.910;35.562;2023-07-20T05:45:22;98896.03;;;22.92;52.01
73692;BME280;61996;49.910;35.562;2023-07-20T05:48:25;98903.75;;;22.95;51.92
73692;BME280;61996;49.910;35.562;2023-07-20T05:51:29;98893.84;;;22.95;51.66
73692;BME280;61996;49.910;35.562;2023-07-20T05:54:35;98893.84;;;22.95;52.30
73692;BME280;61996;49.910;35.562;2023-07-20T05:57:38;98889.13;;;22.97;51.26
73692;BME280;61996;49.910;35.562;2023-07-20T06:00:44;98895.50;;;22.96;51.13
73692;BME280;61996;49.910;35.562;2023-07-20T06:03:49;98895.94;;;23.00;51.24
73692;BME280;61996;49.910;35.562;2023-07-20T06:06:54;98894.09;;;23.01;51.00
73692;BME280;61996;49.910;35.562;2023-07-20T06:09:56;98890.25;;;23.03;51.24
73692;BME280;61996;49.910;35.562;2023-07-20T06:13:00;98890.25;;;23.03;51.81
73692;BME280;61996;49.910;35.562;2023-07-20T06:16:03;98894.59;;;23.04;51.63
73692;BME280;61996;49.910;35.562;2023-07-20T06:19:06;98895.22;;;23.06;51.16
73692;BME280;61996;49.910;35.562;2023-07-20T06:22:10;98893.19;;;23.08;51.30
73692;BME280;61996;49.910;35.562;2023-07-20T06:25:13;98889.50;;;23.09;51.75
73692;BME280;61996;49.910;35.562;2023-07-20T06:28:16;98890.69;;;23.07;51.63
73692;BME280;61996;49.910;35.562;2023-07-20T06:31:19;98886.63;;;23.11;50.81
73692;BME280;61996;49.910;35.562;2023-07-20T06:34:22;98886.63;;;23.11;50.88
73692;BME280;61996;49.910;35.562;2023-07-20T06:37:26;98883.56;;;23.14;50.89
73692;BME280;61996;49.910;35.562;2023-07-20T06:40:29;98885.41;;;23.13;50.47
73692;BME280;61996;49.910;35.562;2023-07-20T06:43:33;98886.25;;;23.14;49.97
73692;BME280;61996;49.910;35.562;2023-07-20T06:46:39;98883.38;;;23.15;50.81
73692;BME280;61996;49.910;35.562;2023-07-20T06:49:42;98889.59;;;23.16;51.22
73692;BME280;61996;49.910;35.562;2023-07-20T06:52:46;98871.81;;;23.15;51.23
73692;BME280;61996;49.910;35.562;2023-07-20T06:55:49;98876.19;;;23.16;51.93
73692;BME280;61996;49.910;35.562;2023-07-20T06:58:52;98876.00;;;23.17;51.70
73692;BME280;61996;49.910;35.562;2023-07-20T07:01:55;98870.06;;;23.22;50.47
73692;BME280;61996;49.910;35.562;2023-07-20T07:04:58;98873.56;;;23.22;50.60
73692;BME280;61996;49.910;35.562;2023-07-20T07:08:28;98871.47;;;23.18;51.71
73692;BME280;61996;49.910;35.562;2023-07-20T07:11:40;98865.72;;;23.21;50.88
73692;BME280;61996;49.910;35.562;2023-07-20T07:14:43;98856.66;;;23.22;51.43
73692;BME280;61996;49.910;35.562;2023-07-20T07:17:46;98858.50;;;23.21;51.78
73692;BME280;61996;49.910;35.562;2023-07-20T07:20:52;98862.00;;;23.22;51.21
73692;BME280;61996;49.910;35.562;2023-07-20T07:23:56;98861.03;;;23.23;51.79
73692;BME280;61996;49.910;35.562;2023-07-20T07:27:00;98855.47;;;23.24;51.21
73692;BME280;61996;49.910;35.562;2023-07-20T07:30:04;98853.81;;;23.23;51.52
73692;BME280;61996;49.910;35.562;2023-07-20T07:33:07;98845.56;;;23.25;51.93
73692;BME280;61996;49.910;35.562;2023-07-20T07:36:10;98857.31;;;23.24;51.58
73692;BME280;61996;49.910;35.562;2023-07-20T07:39:14;98858.16;;;23.24;51.73
73692;BME280;61996;49.910;35.562;2023-07-20T07:42:20;98851.75;;;23.25;51.63
73692;BME280;61996;49.910;35.562;2023-07-20T07:45:25;98849.91;;;23.26;52.13
73692;BME280;61996;49.910;35.562;2023-07-20T07:48:28;98863.13;;;23.28;51.74
73692;BME280;61996;49.910;35.562;2023-07-20T07:51:31;98860.44;;;23.28;51.84
73692;BME280;61996;49.910;35.562;2023-07-20T07:54:35;98868.31;;;23.29;51.92
73692;BME280;61996;49.910;35.562;2023-07-20T07:57:38;98863.78;;;23.30;51.71
73692;BME280;61996;49.910;35.562;2023-07-20T08:00:40;98870.81;;;23.31;52.10
73692;BME280;61996;49.910;35.562;2023-07-20T08:03:44;98869.16;;;23.30;51.66
73692;BME280;61996;49.910;35.562;2023-07-20T08:06:48;98867.94;;;23.32;51.34
73692;BME280;61996;49.910;35.562;2023-07-20T08:09:53;98873.22;;;23.40;48.88
73692;BME280;61996;49.910;35.562;2023-07-20T08:12:55;98873.75;;;23.36;50.13
73692;BME280;61996;49.910;35.562;2023-07-20T08:15:58;98879.13;;;23.36;50.20
73692;BME280;61996;49.910;35.562;2023-07-20T08:19:01;98877.09;;;23.38;49.67
73692;BME280;61996;49.910;35.562;2023-07-20T08:22:05;98878.28;;;23.35;49.44
73692;BME280;61996;49.910;35.562;2023-07-20T08:25:09;98889.22;;;23.34;50.46
73692;BME280;61996;49.910;35.562;2023-07-20T08:28:13;98893.19;;;23.38;48.41
73692;BME280;61996;49.910;35.562;2023-07-20T08:31:17;98890.69;;;23.36;50.25
73692;BME280;61996;49.910;35.562;2023-07-20T08:34:20;98894.47;;;23.42;48.34
73692;BME280;61996;49.910;35.562;2023-07-20T08:37:32;98892.00;;;23.40;48.94
73692;BME280;61996;49.910;35.562;2023-07-20T08:40:39;98884.31;;;23.37;48.99
73692;BME280;61996;49.910;35.562;2023-07-20T08:43:43;98882.47;;;23.38;49.59
73692;BME280;61996;49.910;35.562;2023-07-20T08:46:46;98887.84;;;23.38;49.93
73692;BME280;61996;49.910;35.562;2023-07-20T08:49:50;98883.31;;;23.38;50.20
73692;BME280;61996;49.910;35.562;2023-07-20T08:52:53;98885.16;;;23.38;50.18
73692;BME280;61996;49.910;35.562;2023-07-20T08:55:59;98889.69;;;23.37;50.76
73692;BME280;61996;49.910;35.562;2023-07-20T08:59:02;98879.78;;;23.38;50.46
73692;BME280;61996;49.910;35.562;2023-07-20T09:02:06;98884.13;;;23.39;50.84
73692;BME280;61996;49.910;35.562;2023-07-20T09:05:10;98884.97;;;23.39;50.65
73692;BME280;61996;49.910;35.562;2023-07-20T09:08:16;98890.31;;;23.39;50.93
73692;BME280;61996;49.910;35.562;2023-07-20T09:11:20;98883.09;;;23.40;50.77
73692;BME280;61996;49.910;35.562;2023-07-20T09:14:23;98878.38;;;23.42;50.95
73692;BME280;61996;49.910;35.562;2023-07-20T09:17:27;98880.03;;;23.43;50.90
73692;BME280;61996;49.910;35.562;2023-07-20T09:20:31;98885.50;;;23.49;50.70
73692;BME280;61996;49.910;35.562;2023-07-20T09:23:35;98881.81;;;23.50;49.81
73692;BME280;61996;49.910;35.562;2023-07-20T09:26:41;98877.19;;;23.44;50.76
73692;BME280;61996;49.910;35.562;2023-07-20T09:29:48;98873.50;;;23.45;50.61
73692;BME280;61996;49.910;35.562;2023-07-20T09:32:51;98879.69;;;23.46;50.49
73692;BME280;61996;49.910;35.562;2023-07-20T09:36:01;98871.44;;;23.47;50.73
73692;BME280;61996;49.910;35.562;2023-07-20T09:39:24;98869.41;;;23.49;50.81
73692;BME280;61996;49.910;35.562;2023-07-20T09:42:32;98867.38;;;23.51;50.63
73692;BME280;61996;49.910;35.562;2023-07-20T09:45:38;98881.63;;;23.52;51.11
73692;BME280;61996;49.910;35.562;2023-07-20T09:48:59;98869.88;;;23.53;50.66
73692;BME280;61996;49.910;35.562;2023-07-20T09:52:04;98867.19;;;23.53;50.83
73692;BME280;61996;49.910;35.562;2023-07-20T09:55:08;98870.69;;;23.53;50.60
73692;BME280;61996;49.910;35.562;2023-07-20T09:58:12;98863.66;;;23.52;51.01
73692;BME280;61996;49.910;35.562;2023-07-20T10:01:16;98863.47;;;23.54;51.02
73692;BME280;61996;49.910;35.562;2023-07-20T10:04:23;98875.69;;;23.57;50.65
73692;BME280;61996;49.910;35.562;2023-07-20T10:07:26;98872.00;;;23.58;51.19
73692;BME280;61996;49.910;35.562;2023-07-20T10:10:30;98877.84;;;23.61;50.70
73692;BME280;61996;49.910;35.562;2023-07-20T10:13:36;98873.31;;;23.62;50.49
73692;BME280;61996;49.910;35.562;2023-07-20T10:16:43;98875.16;;;23.61;50.57
73692;BME280;61996;49.910;35.562;2023-07-20T10:19:51;98873.31;;;23.62;50.68
73692;BME280;61996;49.910;35.562;2023-07-20T10:22:57;98855.16;;;23.64;50.68
73692;BME280;61996;49.910;35.562;2023-07-20T10:26:00;98858.50;;;23.66;50.67
73692;BME280;61996;49.910;35.562;2023-07-20T10:29:05;98853.13;;;23.66;50.87
73692;BME280;61996;49.910;35.562;2023-07-20T10:32:08;98857.28;;;23.68;50.80
73692;BME280;61996;49.910;35.562;2023-07-20T10:35:12;98847.38;;;23.69;50.75
73692;BME280;61996;49.910;35.562;2023-07-20T10:38:15;98842.81;;;23.69;50.52
73692;BME280;61996;49.910;35.562;2023-07-20T10:41:19;98833.75;;;23.70;50.40
73692;BME280;61996;49.910;35.562;2023-07-20T10:44:23;98836.28;;;23.72;50.75
73692;BME280;61996;49.910;35.562;2023-07-20T10:47:26;98829.88;;;23.73;50.55
73692;BME280;61996;49.910;35.562;2023-07-20T10:50:29;98830.50;;;23.75;50.48
73692;BME280;61996;49.910;35.562;2023-07-20T10:53:33;98827.63;;;23.76;50.73
73692;BME280;61996;49.910;35.562;2023-07-20T10:56:37;98824.75;;;23.78;50.41
73692;BME280;61996;49.910;35.562;2023-07-20T10:59:41;98822.53;;;23.82;50.77
73692;BME280;61996;49.910;35.562;2023-07-20T11:02:46;98823.16;;;23.84;50.58
73692;BME280;61996;49.910;35.562;2023-07-20T11:05:52;98813.91;;;23.86;50.46
73692;BME280;61996;49.910;35.562;2023-07-20T11:08:55;98813.72;;;23.88;50.66
73692;BME280;61996;49.910;35.562;2023-07-20T11:12:08;98812.06;;;23.87;50.62
73692;BME280;61996;49.910;35.562;2023-07-20T11:15:13;98810.63;;;23.91;50.69
73692;BME280;61996;49.910;35.562;2023-07-20T11:18:16;98813.16;;;23.92;50.50
73692;BME280;61996;49.910;35.562;2023-07-20T11:21:20;98808.59;;;23.93;50.36
73692;BME280;61996;49.910;35.562;2023-07-20T11:24:24;98809.03;;;23.96;50.29
73692;BME280;61996;49.910;35.562;2023-07-20T11:27:27;98802.44;;;23.99;50.60
73692;BME280;61996;49.910;35.562;2023-07-20T11:30:33;98806.81;;;24.00;50.48
73692;BME280;61996;49.910;35.562;2023-07-20T11:33:37;98799.59;;;24.00;50.41
73692;BME280;61996;49.910;35.562;2023-07-20T11:36:40;98798.81;;;24.06;50.72
73692;BME280;61996;49.910;35.562;2023-07-20T11:39:46;98794.44;;;24.05;50.57
73692;BME280;61996;49.910;35.562;2023-07-20T11:42:49;98788.72;;;24.09;50.17
73692;BME280;61996;49.910;35.562;2023-07-20T11:45:58;98785.63;;;24.12;50.18
73692;BME280;61996;49.910;35.562;2023-07-20T11:49:02;98787.28;;;24.13;50.58
73692;BME280;61996;49.910;35.562;2023-07-20T11:52:06;98787.94;;;24.15;50.26
73692;BME280;61996;49.910;35.562;2023-07-20T11:55:09;98784.84;;;24.18;50.28
73692;BME280;61996;49.910;35.562;2023-07-20T11:58:12;98782.16;;;24.18;50.20
73692;BME280;61996;49.910;35.562;2023-07-20T12:01:19;98788.81;;;24.22;50.06
73692;BME280;61996;49.910;35.562;2023-07-20T12:04:22;98784.47;;;24.21;49.89
73692;BME280;61996;49.910;35.562;2023-07-20T12:07:27;98780.97;;;24.20;50.12
73692;BME280;61996;49.910;35.562;2023-07-20T12:10:30;98777.25;;;24.21;50.26
73692;BME280;61996;49.910;35.562;2023-07-20T12:13:36;98774.56;;;24.21;50.35
73692;BME280;61996;49.910;35.562;2023-07-20T12:16:41;98780.56;;;24.23;49.96
73692;BME280;61996;49.910;35.562;2023-07-20T12:19:44;98770.44;;;24.25;50.15
73692;BME280;61996;49.910;35.562;2023-07-20T12:22:47;98768.22;;;24.29;49.98
73692;BME280;61996;49.910;35.562;2023-07-20T12:25:50;98767.19;;;24.30;49.69
73692;BME280;61996;49.910;35.562;2023-07-20T12:28:53;98768.72;;;24.39;49.14
73692;BME280;61996;49.910;35.562;2023-07-20T12:31:57;98769.31;;;24.35;49.92
73692;BME280;61996;49.910;35.562;2023-07-20T12:35:00;98756.22;;;24.31;49.94
73692;BME280;61996;49.910;35.562;2023-07-20T12:38:04;98759.22;;;24.37;49.56
73692;BME280;61996;49.910;35.562;2023-07-20T12:41:09;98752.59;;;24.39;49.07
73692;BME280;61996;49.910;35.562;2023-07-20T12:44:14;98745.19;;;24.41;49.15
73692;BME280;61996;49.910;35.562;2023-07-20T12:47:18;98741.84;;;24.39;48.88
73692;BME280;61996;49.910;35.562;2023-07-20T12:50:21;98757.00;;;24.47;48.56
73692;BME280;61996;49.910;35.562;2023-07-20T12:53:24;98746.06;;;24.48;48.81
73692;BME280;61996;49.910;35.562;2023-07-20T12:56:26;98736.31;;;24.47;48.85
73692;BME280;61996;49.910;35.562;2023-07-20T12:59:32;98733.25;;;24.50;49.04
73692;BME280;61996;49.910;35.562;2023-07-20T13:02:37;98733.47;;;24.49;48.83
73692;BME280;61996;49.910;35.562;2023-07-20T13:05:40;98734.69;;;24.53;49.07
73692;BME280;61996;49.910;35.562;2023-07-20T13:08:46;98733.50;;;24.55;49.03
73692;BME280;61996;49.910;35.562;2023-07-20T13:11:49;98726.44;;;24.54;49.21
73692;BME280;61996;49.910;35.562;2023-07-20T13:14:51;98724.16;;;24.51;49.12
73692;BME280;61996;49.910;35.562;2023-07-20T13:17:55;98717.53;;;24.54;49.21
73692;BME280;61996;49.910;35.562;2023-07-20T13:20:58;98719.25;;;24.61;49.11
73692;BME280;61996;49.910;35.562;2023-07-20T13:24:01;98716.38;;;24.63;49.04
73692;BME280;61996;49.910;35.562;2023-07-20T13:27:05;98714.72;;;24.62;49.11
73692;BME280;61996;49.910;35.562;2023-07-20T13:30:09;98702.09;;;24.63;49.29
73692;BME280;61996;49.910;35.562;2023-07-20T13:33:19;98702.97;;;24.70;48.83
73692;BME280;61996;49.910;35.562;2023-07-20T13:36:22;98704.00;;;24.69;49.13
73692;BME280;61996;49.910;35.562;2023-07-20T13:39:25;98703.59;;;24.72;48.84
73692;BME280;61996;49.910;35.562;2023-07-20T13:42:29;98695.72;;;24.70;49.04
73692;BME280;61996;49.910;35.562;2023-07-20T13:45:32;98700.06;;;24.71;49.10
73692;BME280;61996;49.910;35.562;2023-07-20T13:48:36;98686.63;;;24.71;49.06
73692;BME280;61996;49.910;35.562;2023-07-20T13:51:39;98689.94;;;24.73;48.72
73692;BME280;61996;49.910;35.562;2023-07-20T13:54:42;98685.41;;;24.74;48.77
73692;BME280;61996;49.910;35.562;2023-07-20T13:57:48;98683.75;;;24.73;48.88
73692;BME280;61996;49.910;35.562;2023-07-20T14:00:52;98693.09;;;24.77;48.51
73692;BME280;61996;49.910;35.562;2023-07-20T14:03:56;98680.47;;;24.77;48.68
73692;BME280;61996;49.910;35.562;2023-07-20T14:07:05;98673.44;;;24.76;48.78
73692;BME280;61996;49.910;35.562;2023-07-20T14:10:08;98670.94;;;24.81;48.82
73692;BME280;61996;49.910;35.562;2023-07-20T14:13:14;98669.91;;;24.82;48.46
73692;BME280;61996;49.910;35.562;2023-07-20T14:16:17;98665.56;;;24.81;48.87
73692;BME280;61996;49.910;35.562;2023-07-20T14:19:22;98675.50;;;24.81;48.57
73692;BME280;61996;49.910;35.562;2023-07-20T14:22:27;98670.78;;;24.83;48.84
73692;BME280;61996;49.910;35.562;2023-07-20T14:25:42;98676.78;;;24.85;48.89
73692;BME280;61996;49.910;35.562;2023-07-20T14:28:44;98668.50;;;24.86;48.44
73692;BME280;61996;49.910;35.562;2023-07-20T14:31:47;98661.03;;;24.88;48.71
73692;BME280;61996;49.910;35.562;2023-07-20T14:34:55;98663.13;;;24.86;48.63
73692;BME280;61996;49.910;35.562;2023-07-20T14:37:58;98660.88;;;24.90;48.60
73692;BME280;61996;49.910;35.562;2023-07-20T14:41:01;98659.84;;;24.91;48.83
73692;BME280;61996;49.910;35.562;2023-07-20T14:44:04;98655.66;;;24.88;48.37
73692;BME280;61996;49.910;35.562;2023-07-20T14:47:06;98649.28;;;24.90;48.43
73692;BME280;61996;49.910;35.562;2023-07-20T14:50:17;98654.44;;;24.91;48.49
73692;BME280;61996;49.910;35.562;2023-07-20T14:53:20;98648.28;;;24.97;48.58
73692;BME280;61996;49.910;35.562;2023-07-20T14:56:22;98642.25;;;24.95;48.64
73692;BME280;61996;49.910;35.562;2023-07-20T14:59:26;98644.94;;;24.95;48.74
73692;BME280;61996;49.910;35.562;2023-07-20T15:02:29;98649.28;;;24.96;48.70
73692;BME280;61996;49.910;35.562;2023-07-20T15:05:33;98653.22;;;24.94;48.75
73692;BME280;61996;49.910;35.562;2023-07-20T15:08:37;98649.09;;;24.98;48.69
73692;BME280;61996;49.910;35.562;2023-07-20T15:11:40;98647.81;;;24.94;48.56
73692;BME280;61996;49.910;35.562;2023-07-20T15:14:45;98645.75;;;24.96;48.58
73692;BME280;61996;49.910;35.562;2023-07-20T15:17:52;98636.69;;;24.97;48.91
73692;BME280;61996;49.910;35.562;2023-07-20T15:20:57;98635.81;;;24.96;48.82
73692;BME280;61996;49.910;35.562;2023-07-20T15:24:00;98638.94;;;24.93;48.72
73692;BME280;61996;49.910;35.562;2023-07-20T15:27:03;98644.75;;;24.97;48.82
73692;BME280;61996;49.910;35.562;2023-07-20T15:30:07;98641.03;;;24.98;49.09
73692;BME280;61996;49.910;35.562;2023-07-20T15:33:10;98642.88;;;24.97;48.98
73692;BME280;61996;49.910;35.562;2023-07-20T15:36:14;98640.59;;;24.94;49.01
73692;BME280;61996;49.910;35.562;2023-07-20T15:39:17;98645.56;;;24.91;48.82
73692;BME280;61996;49.910;35.562;2023-07-20T15:42:20;98642.44;;;24.94;49.04
73692;BME280;61996;49.910;35.562;2023-07-20T15:45:38;98635.00;;;24.96;48.76
73692;BME280;61996;49.910;35.562;2023-07-20T15:48:42;98631.47;;;24.95;48.84
73692;BME280;61996;49.910;35.562;2023-07-20T15:51:47;98635.00;;;24.96;49.06
73692;BME280;61996;49.910;35.562;2023-07-20T15:54:50;98629.63;;;24.96;48.90
73692;BME280;61996;49.910;35.562;2023-07-20T15:57:57;98637.91;;;24.94;49.00
73692;BME280;61996;49.910;35.562;2023-07-20T16:01:00;98626.31;;;24.94;49.05
73692;BME280;61996;49.910;35.562;2023-07-20T16:04:03;98613.47;;;24.96;49.05
73692;BME280;61996;49.910;35.562;2023-07-20T16:07:08;98615.16;;;24.97;49.02
73692;BME280;61996;49.910;35.562;2023-07-20T16:10:10;98614.72;;;24.93;49.44